sensor_id;sensor_type;location;lat;lon;timestamp;temperature;humidity
18577;DHT22;9418;52.694;13.294;2023-09-19T00:01:32;17.90;99.90
18577;DHT22;9418;52.694;13.294;2023-09-19T00:03:59;17.80;99.90
18577;DHT22;9418;52.694;13.294;2023-09-19T00:06:28;17.80;99.90
18577;DHT22;9418;52.694;13.294;2023-09-19T00:08:57;17.80;99.90
18577;DHT22;9418;52.694;13.294;2023-09-19T00:11:24;17.80;99.90
18577;DHT22;9418;52.694;13.294;2023-09-19T00:13:51;17.80;99.90
18577;DHT22;9418;52.694;13.294;2023-09-19T00:16:18;17.80;99.90
18577;DHT22;9418;52.694;13.294;2023-09-19T00:18:45;17.80;99.90
18577;DHT22;9418;52.694;13.294;2023-09-19T00:21:13;17.80;99.90
18577;DHT22;9418;52.694;13.294;2023-09-19T00:23:40;17.80;99.90
18577;DHT22;9418;52.694;13.294;2023-09-19T00:26:07;17.80;99.90
18577;DHT22;9418;52.694;13.294;2023-09-19T00:28:34;17.80;99.90
18577;DHT22;9418;52.694;13.294;2023-09-19T00:31:00;17.80;99.90
18577;DHT22;9418;52.694;13.294;2023-09-19T00:33:27;17.80;99.90
18577;DHT22;9418;52.694;13.294;2023-09-19T00:35:56;17.80;99.90
18577;DHT22;9418;52.694;13.294;2023-09-19T00:38:24;17.80;99.90
18577;DHT22;9418;52.694;13.294;2023-09-19T00:40:53;17.80;99.90
18577;DHT22;9418;52.694;13.294;2023-09-19T00:43:20;17.70;99.90
18577;DHT22;9418;52.694;13.294;2023-09-19T00:45:51;17.80;99.90
18577;DHT22;9418;52.694;13.294;2023-09-19T00:48:19;17.70;99.90
18577;DHT22;9418;52.694;13.294;2023-09-19T00:50:46;17.80;99.90
18577;DHT22;9418;52.694;13.294;2023-09-19T00:53:15;17.70;99.90
18577;DHT22;9418;52.694;13.294;2023-09-19T00:55:45;17.70;99.90
18577;DHT22;9418;52.694;13.294;2023-09-19T00:58:13;17.70;99.90
18577;DHT22;9418;52.694;13.294;2023-09-19T01:00:40;17.70;99.90
18577;DHT22;9418;52.694;13.294;2023-09-19T01:03:10;17.70;99.90
18577;DHT22;9418;52.694;13.294;2023-09-19T01:05:38;17.70;99.90
18577;DHT22;9418;52.694;13.294;2023-09-19T01:08:05;17.70;99.90
18577;DHT22;9418;52.694;13.294;2023-09-19T01:10:33;17.70;99.90
18577;DHT22;9418;52.694;13.294;2023-09-19T01:13:05;17.70;99.90
18577;DHT22;9418;52.694;13.294;2023-09-19T01:15:40;17.70;99.90
18577;DHT22;9418;52.694;13.294;2023-09-19T01:18:18;17.70;99.90
18577;DHT22;9418;52.694;13.294;2023-09-19T01:20:53;17.70;99.90
18577;DHT22;9418;52.694;13.294;2023-09-19T01:23:28;17.70;99.90
18577;DHT22;9418;52.694;13.294;2023-09-19T01:26:06;17.70;99.90
18577;DHT22;9418;52.694;13.294;2023-09-19T01:28:45;17.70;99.90
18577;DHT22;9418;52.694;13.294;2023-09-19T01:31:21;17.70;99.90
18577;DHT22;9418;52.694;13.294;2023-09-19T01:36:20;17.80;99.90
18577;DHT22;9418;52.694;13.294;2023-09-19T01:38:48;17.80;99.90
18577;DHT22;9418;52.694;13.294;2023-09-19T01:41:17;17.80;99.90
18577;DHT22;9418;52.694;13.294;2023-09-19T01:43:49;17.80;99.90
18577;DHT22;9418;52.694;13.294;2023-09-19T01:46:22;17.80;99.90
18577;DHT22;9418;52.694;13.294;2023-09-19T01:48:58;17.70;99.90
18577;DHT22;9418;52.694;13.294;2023-09-19T01:51:43;17.70;99.90
18577;DHT22;9418;52.694;13.294;2023-09-19T01:54:16;17.70;99.90
18577;DHT22;9418;52.694;13.294;2023-09-19T01:56:49;17.60;99.90
18577;DHT22;9418;52.694;13.294;2023-09-19T01:59:25;17.60;99.90
18577;DHT22;9418;52.694;13.294;2023-09-19T02:01:56;17.60;99.90
18577;DHT22;9418;52.694;13.294;2023-09-19T02:04:23;17.60;99.90
18577;DHT22;9418;52.694;13.294;2023-09-19T02:06:49;17.60;99.90
18577;DHT22;9418;52.694;13.294;2023-09-19T02:09:17;17.50;99.90
18577;DHT22;9418;52.694;13.294;2023-09-19T02:11:43;17.50;99.90
18577;DHT22;9418;52.694;13.294;2023-09-19T02:14:10;17.40;99.90
18577;DHT22;9418;52.694;13.294;2023-09-19T02:16:36;17.40;99.90
18577;DHT22;9418;52.694;13.294;2023-09-19T02:19:05;17.40;99.90
18577;DHT22;9418;52.694;13.294;2023-09-19T02:21:31;17.30;99.90
18577;DHT22;9418;52.694;13.294;2023-09-19T02:23:57;17.30;99.90
18577;DHT22;9418;52.694;13.294;2023-09-19T02:26:24;17.30;99.90
18577;DHT22;9418;52.694;13.294;2023-09-19T02:28:50;17.30;99.90
18577;DHT22;9418;52.694;13.294;2023-09-19T02:31:18;17.20;99.90
18577;DHT22;9418;52.694;13.294;2023-09-19T02:33:45;17.20;99.90
18577;DHT22;9418;52.694;13.294;2023-09-19T02:36:12;17.20;99.90
18577;DHT22;9418;52.694;13.294;2023-09-19T02:38:42;17.20;99.90
18577;DHT22;9418;52.694;13.294;2023-09-19T02:41:08;17.20;99.90
18577;DHT22;9418;52.694;13.294;2023-09-19T02:43:35;17.20;99.90
18577;DHT22;9418;52.694;13.294;2023-09-19T02:46:01;17.20;99.90
18577;DHT22;9418;52.694;13.294;2023-09-19T02:48:28;17.20;99.90
18577;DHT22;9418;52.694;13.294;2023-09-19T02:50:57;17.10;99.90
18577;DHT22;9418;52.694;13.294;2023-09-19T02:53:25;17.10;99.90
18577;DHT22;9418;52.694;13.294;2023-09-19T02:55:51;17.10;99.90
18577;DHT22;9418;52.694;13.294;2023-09-19T02:58:18;17.10;99.90
18577;DHT22;9418;52.694;13.294;2023-09-19T03:00:45;17.10;99.90
18577;DHT22;9418;52.694;13.294;2023-09-19T03:03:13;17.00;99.90
18577;DHT22;9418;52.694;13.294;2023-09-19T03:05:41;17.00;99.90
18577;DHT22;9418;52.694;13.294;2023-09-19T03:08:12;17.00;99.90
18577;DHT22;9418;52.694;13.294;2023-09-19T03:10:41;17.00;99.90
18577;DHT22;9418;52.694;13.294;2023-09-19T03:13:08;17.00;99.90
18577;DHT22;9418;52.694;13.294;2023-09-19T03:15:35;17.00;99.90
18577;DHT22;9418;52.694;13.294;2023-09-19T03:18:04;16.90;99.90
18577;DHT22;9418;52.694;13.294;2023-09-19T03:20:31;17.00;99.90
18577;DHT22;9418;52.694;13.294;2023-09-19T03:22:57;16.90;99.90
18577;DHT22;9418;52.694;13.294;2023-09-19T03:25:24;16.90;99.90
18577;DHT22;9418;52.694;13.294;2023-09-19T03:27:52;16.90;99.90
18577;DHT22;9418;52.694;13.294;2023-09-19T03:30:19;16.90;99.90
18577;DHT22;9418;52.694;13.294;2023-09-19T03:32:46;16.80;99.90
18577;DHT22;9418;52.694;13.294;2023-09-19T03:35:15;16.80;99.90
18577;DHT22;9418;52.694;13.294;2023-09-19T03:37:42;16.80;99.90
18577;DHT22;9418;52.694;13.294;2023-09-19T03:40:10;16.80;99.90
18577;DHT22;9418;52.694;13.294;2023-09-19T03:42:38;16.70;99.90
18577;DHT22;9418;52.694;13.294;2023-09-19T03:45:07;16.70;99.90
18577;DHT22;9418;52.694;13.294;2023-09-19T03:47:37;16.70;99.90
18577;DHT22;9418;52.694;13.294;2023-09-19T03:50:04;16.70;99.90
18577;DHT22;9418;52.694;13.294;2023-09-19T03:52:32;16.70;99.90
18577;DHT22;9418;52.694;13.294;2023-09-19T03:54:59;16.70;99.90
18577;DHT22;9418;52.694;13.294;2023-09-19T03:57:26;16.70;99.90
18577;DHT22;9418;52.694;13.294;2023-09-19T03:59:52;16.70;99.90
18577;DHT22;9418;52.694;13.294;2023-09-19T04:02:20;16.70;99.90
18577;DHT22;9418;52.694;13.294;2023-09-19T04:04:48;16.60;99.90
18577;DHT22;9418;52.694;13.294;2023-09-19T04:07:15;16.60;22.00
18577;DHT22;9418;52.694;13.294;2023-09-19T04:09:42;16.70;26.80
18577;DHT22;9418;52.694;13.294;2023-09-19T04:12:08;16.60;26.20
18577;DHT22;9418;52.694;13.294;2023-09-19T04:14:35;16.60;28.50
18577;DHT22;9418;52.694;13.294;2023-09-19T04:17:01;16.50;33.10
18577;DHT22;9418;52.694;13.294;2023-09-19T04:19:29;16.60;34.30
18577;DHT22;9418;52.694;13.294;2023-09-19T04:21:56;16.50;36.60
18577;DHT22;9418;52.694;13.294;2023-09-19T04:24:23;16.50;42.10
18577;DHT22;9418;52.694;13.294;2023-09-19T04:26:49;16.50;42.20
18577;DHT22;9418;52.694;13.294;2023-09-19T04:29:16;16.50;40.40
18577;DHT22;9418;52.694;13.294;2023-09-19T04:31:44;16.40;41.80
18577;DHT22;9418;52.694;13.294;2023-09-19T04:34:11;16.30;42.90
18577;DHT22;9418;52.694;13.294;2023-09-19T04:36:43;16.30;42.70
18577;DHT22;9418;52.694;13.294;2023-09-19T04:39:10;16.20;46.90
18577;DHT22;9418;52.694;13.294;2023-09-19T04:41:38;16.30;49.70
18577;DHT22;9418;52.694;13.294;2023-09-19T04:44:06;16.30;50.30
18577;DHT22;9418;52.694;13.294;2023-09-19T04:46:33;16.30;54.80
18577;DHT22;9418;52.694;13.294;2023-09-19T04:49:00;16.30;56.20
18577;DHT22;9418;52.694;13.294;2023-09-19T04:51:27;16.30;59.40
18577;DHT22;9418;52.694;13.294;2023-09-19T04:53:59;16.30;60.40
18577;DHT22;9418;52.694;13.294;2023-09-19T04:56:26;16.20;65.60
18577;DHT22;9418;52.694;13.294;2023-09-19T04:58:53;16.20;66.60
18577;DHT22;9418;52.694;13.294;2023-09-19T05:01:20;16.30;71.40
18577;DHT22;9418;52.694;13.294;2023-09-19T05:03:48;16.30;70.40
18577;DHT22;9418;52.694;13.294;2023-09-19T05:06:17;16.30;74.50
18577;DHT22;9418;52.694;13.294;2023-09-19T05:08:44;16.20;76.70
18577;DHT22;9418;52.694;13.294;2023-09-19T05:11:12;16.20;78.30
18577;DHT22;9418;52.694;13.294;2023-09-19T05:13:38;16.30;80.30
18577;DHT22;9418;52.694;13.294;2023-09-19T05:16:05;16.30;81.50
18577;DHT22;9418;52.694;13.294;2023-09-19T05:18:31;16.30;83.90
18577;DHT22;9418;52.694;13.294;2023-09-19T05:20:58;16.30;86.00
18577;DHT22;9418;52.694;13.294;2023-09-19T05:23:28;16.30;85.40
18577;DHT22;9418;52.694;13.294;2023-09-19T05:25:54;16.20;84.70
18577;DHT22;9418;52.694;13.294;2023-09-19T05:28:23;16.20;84.40
18577;DHT22;9418;52.694;13.294;2023-09-19T05:30:50;16.20;83.30
18577;DHT22;9418;52.694;13.294;2023-09-19T05:33:18;16.10;81.80
18577;DHT22;9418;52.694;13.294;2023-09-19T05:35:45;16.10;78.50
18577;DHT22;9418;52.694;13.294;2023-09-19T05:38:14;16.10;78.30
18577;DHT22;9418;52.694;13.294;2023-09-19T05:40:44;16.10;79.80
18577;DHT22;9418;52.694;13.294;2023-09-19T05:43:11;16.10;81.80
18577;DHT22;9418;52.694;13.294;2023-09-19T05:45:40;16.20;81.60
18577;DHT22;9418;52.694;13.294;2023-09-19T05:48:08;16.20;81.60
18577;DHT22;9418;52.694;13.294;2023-09-19T05:50:35;16.20;83.00
18577;DHT22;9418;52.694;13.294;2023-09-19T05:53:01;16.20;84.00
18577;DHT22;9418;52.694;13.294;2023-09-19T05:55:29;16.30;88.20
18577;DHT22;9418;52.694;13.294;2023-09-19T05:57:56;16.30;87.90
18577;DHT22;9418;52.694;13.294;2023-09-19T06:00:23;16.30;87.70
18577;DHT22;9418;52.694;13.294;2023-09-19T06:02:53;16.40;86.60
18577;DHT22;9418;52.694;13.294;2023-09-19T06:05:20;16.40;86.40
18577;DHT22;9418;52.694;13.294;2023-09-19T06:07:47;16.40;85.80
18577;DHT22;9418;52.694;13.294;2023-09-19T06:10:14;16.40;87.70
18577;DHT22;9418;52.694;13.294;2023-09-19T06:12:41;16.40;85.00
18577;DHT22;9418;52.694;13.294;2023-09-19T06:15:11;16.40;88.50
18577;DHT22;9418;52.694;13.294;2023-09-19T06:17:41;16.50;87.60
18577;DHT22;9418;52.694;13.294;2023-09-19T06:20:09;16.60;88.60
18577;DHT22;9418;52.694;13.294;2023-09-19T06:22:40;16.60;93.10
18577;DHT22;9418;52.694;13.294;2023-09-19T06:25:08;16.70;99.90
18577;DHT22;9418;52.694;13.294;2023-09-19T06:27:36;16.60;99.90
18577;DHT22;9418;52.694;13.294;2023-09-19T06:30:04;16.70;98.50
18577;DHT22;9418;52.694;13.294;2023-09-19T06:32:31;16.80;96.10
18577;DHT22;9418;52.694;13.294;2023-09-19T06:34:58;16.90;99.90
18577;DHT22;9418;52.694;13.294;2023-09-19T06:37:28;16.90;99.90
18577;DHT22;9418;52.694;13.294;2023-09-19T06:39:54;17.00;99.90
18577;DHT22;9418;52.694;13.294;2023-09-19T06:42:22;17.10;99.90
18577;DHT22;9418;52.694;13.294;2023-09-19T06:44:49;17.20;99.90
18577;DHT22;9418;52.694;13.294;2023-09-19T06:47:15;17.30;99.90
18577;DHT22;9418;52.694;13.294;2023-09-19T06:49:42;17.40;99.90
18577;DHT22;9418;52.694;13.294;2023-09-19T06:52:09;17.50;99.90
18577;DHT22;9418;52.694;13.294;2023-09-19T06:54:37;17.60;99.90
18577;DHT22;9418;52.694;13.294;2023-09-19T06:57:05;17.70;99.90
18577;DHT22;9418;52.694;13.294;2023-09-19T06:59:35;17.70;99.90
18577;DHT22;9418;52.694;13.294;2023-09-19T07:02:02;17.80;99.90
18577;DHT22;9418;52.694;13.294;2023-09-19T07:04:31;17.90;99.90
18577;DHT22;9418;52.694;13.294;2023-09-19T07:06:58;17.90;99.90
18577;DHT22;9418;52.694;13.294;2023-09-19T07:09:25;17.90;99.90
18577;DHT22;9418;52.694;13.294;2023-09-19T07:11:54;17.90;99.90
18577;DHT22;9418;52.694;13.294;2023-09-19T07:14:21;17.90;99.90
18577;DHT22;9418;52.694;13.294;2023-09-19T07:16:48;17.90;99.90
18577;DHT22;9418;52.694;13.294;2023-09-19T07:19:14;17.80;99.90
18577;DHT22;9418;52.694;13.294;2023-09-19T07:21:41;17.80;99.90
18577;DHT22;9418;52.694;13.294;2023-09-19T07:24:08;17.70;99.90
18577;DHT22;9418;52.694;13.294;2023-09-19T07:26:35;17.70;99.90
18577;DHT22;9418;52.694;13.294;2023-09-19T07:29:03;17.70;99.90
18577;DHT22;9418;52.694;13.294;2023-09-19T07:31:30;17.70;99.90
18577;DHT22;9418;52.694;13.294;2023-09-19T07:33:57;17.80;99.90
18577;DHT22;9418;52.694;13.294;2023-09-19T07:36:23;17.70;99.90
18577;DHT22;9418;52.694;13.294;2023-09-19T07:38:50;17.70;99.90
18577;DHT22;9418;52.694;13.294;2023-09-19T07:41:17;17.70;99.90
18577;DHT22;9418;52.694;13.294;2023-09-19T07:43:43;17.70;99.90
18577;DHT22;9418;52.694;13.294;2023-09-19T07:46:11;17.80;99.90
18577;DHT22;9418;52.694;13.294;2023-09-19T07:48:38;17.70;99.90
18577;DHT22;9418;52.694;13.294;2023-09-19T07:51:07;17.70;99.90
18577;DHT22;9418;52.694;13.294;2023-09-19T07:53:34;17.70;99.90
18577;DHT22;9418;52.694;13.294;2023-09-19T07:56:02;17.80;99.90
18577;DHT22;9418;52.694;13.294;2023-09-19T07:58:29;17.90;99.90
18577;DHT22;9418;52.694;13.294;2023-09-19T08:00:56;18.00;99.90
18577;DHT22;9418;52.694;13.294;2023-09-19T08:03:24;18.00;99.90
18577;DHT22;9418;52.694;13.294;2023-09-19T08:05:50;18.00;99.90
18577;DHT22;9418;52.694;13.294;2023-09-19T08:08:17;17.80;99.90
18577;DHT22;9418;52.694;13.294;2023-09-19T08:10:43;17.80;99.90
18577;DHT22;9418;52.694;13.294;2023-09-19T08:13:14;17.80;99.90
18577;DHT22;9418;52.694;13.294;2023-09-19T08:15:43;17.70;99.90
18577;DHT22;9418;52.694;13.294;2023-09-19T08:18:10;17.60;99.90
18577;DHT22;9418;52.694;13.294;2023-09-19T08:20:38;17.50;99.90
18577;DHT22;9418;52.694;13.294;2023-09-19T08:23:08;17.50;99.90
18577;DHT22;9418;52.694;13.294;2023-09-19T08:25:34;17.60;99.90
18577;DHT22;9418;52.694;13.294;2023-09-19T08:28:04;17.60;99.90
18577;DHT22;9418;52.694;13.294;2023-09-19T08:30:34;17.50;99.90
18577;DHT22;9418;52.694;13.294;2023-09-19T08:33:01;17.60;99.90
18577;DHT22;9418;52.694;13.294;2023-09-19T08:35:30;17.60;99.90
18577;DHT22;9418;52.694;13.294;2023-09-19T08:37:58;17.70;99.90
18577;DHT22;9418;52.694;13.294;2023-09-19T08:40:26;17.80;99.90
18577;DHT22;9418;52.694;13.294;2023-09-19T08:42:55;18.10;99.90
18577;DHT22;9418;52.694;13.294;2023-09-19T08:45:22;18.10;99.90
18577;DHT22;9418;52.694;13.294;2023-09-19T08:47:56;18.20;99.90
18577;DHT22;9418;52.694;13.294;2023-09-19T08:50:27;18.40;97.40
18577;DHT22;9418;52.694;13.294;2023-09-19T08:52:55;18.40;30.70
18577;DHT22;9418;52.694;13.294;2023-09-19T08:55:28;18.60;46.50
18577;DHT22;9418;52.694;13.294;2023-09-19T08:58:00;18.70;66.00
18577;DHT22;9418;52.694;13.294;2023-09-19T09:00:28;18.90;67.80
18577;DHT22;9418;52.694;13.294;2023-09-19T09:02:55;18.80;88.00
18577;DHT22;9418;52.694;13.294;2023-09-19T09:05:23;18.70;99.90
18577;DHT22;9418;52.694;13.294;2023-09-19T09:07:52;18.80;92.90
18577;DHT22;9418;52.694;13.294;2023-09-19T09:10:21;18.70;91.40
18577;DHT22;9418;52.694;13.294;2023-09-19T09:12:51;18.80;97.60
18577;DHT22;9418;52.694;13.294;2023-09-19T09:15:19;19.00;94.20
18577;DHT22;9418;52.694;13.294;2023-09-19T09:17:48;18.90;99.90
18577;DHT22;9418;52.694;13.294;2023-09-19T09:20:16;18.90;99.90
18577;DHT22;9418;52.694;13.294;2023-09-19T09:22:51;18.70;99.90
18577;DHT22;9418;52.694;13.294;2023-09-19T09:25:17;18.60;99.90
18577;DHT22;9418;52.694;13.294;2023-09-19T09:27:46;18.60;99.90
18577;DHT22;9418;52.694;13.294;2023-09-19T09:30:32;18.40;99.90
18577;DHT22;9418;52.694;13.294;2023-09-19T09:33:07;18.10;99.90
18577;DHT22;9418;52.694;13.294;2023-09-19T09:35:35;18.20;99.90
18577;DHT22;9418;52.694;13.294;2023-09-19T09:38:02;18.30;99.90
18577;DHT22;9418;52.694;13.294;2023-09-19T09:40:46;18.30;99.90
18577;DHT22;9418;52.694;13.294;2023-09-19T09:43:25;18.80;99.90
18577;DHT22;9418;52.694;13.294;2023-09-19T09:46:11;19.10;99.90
18577;DHT22;9418;52.694;13.294;2023-09-19T09:49:10;19.10;99.90
18577;DHT22;9418;52.694;13.294;2023-09-19T09:51:48;19.30;99.90
18577;DHT22;9418;52.694;13.294;2023-09-19T09:54:23;19.50;99.90
18577;DHT22;9418;52.694;13.294;2023-09-19T09:56:56;19.50;99.90
18577;DHT22;9418;52.694;13.294;2023-09-19T09:59:45;19.90;99.90
18577;DHT22;9418;52.694;13.294;2023-09-19T10:02:18;20.00;99.90
18577;DHT22;9418;52.694;13.294;2023-09-19T10:04:49;20.20;99.90
18577;DHT22;9418;52.694;13.294;2023-09-19T10:07:25;20.60;99.90
18577;DHT22;9418;52.694;13.294;2023-09-19T10:09:58;20.50;99.90
18577;DHT22;9418;52.694;13.294;2023-09-19T10:12:31;20.70;99.90
18577;DHT22;9418;52.694;13.294;2023-09-19T10:15:00;21.20;99.90
18577;DHT22;9418;52.694;13.294;2023-09-19T10:17:33;21.70;99.90
18577;DHT22;9418;52.694;13.294;2023-09-19T10:20:00;22.40;99.90
18577;DHT22;9418;52.694;13.294;2023-09-19T10:22:35;22.80;99.90
18577;DHT22;9418;52.694;13.294;2023-09-19T10:25:04;22.60;99.90
18577;DHT22;9418;52.694;13.294;2023-09-19T10:27:35;22.00;99.90
18577;DHT22;9418;52.694;13.294;2023-09-19T10:30:05;22.10;99.90
18577;DHT22;9418;52.694;13.294;2023-09-19T10:32:35;21.80;99.90
18577;DHT22;9418;52.694;13.294;2023-09-19T10:35:05;21.60;99.90
18577;DHT22;9418;52.694;13.294;2023-09-19T10:37:32;21.50;99.90
18577;DHT22;9418;52.694;13.294;2023-09-19T10:40:00;21.80;99.90
18577;DHT22;9418;52.694;13.294;2023-09-19T10:42:27;22.00;99.90
18577;DHT22;9418;52.694;13.294;2023-09-19T10:44:55;22.30;99.90
18577;DHT22;9418;52.694;13.294;2023-09-19T10:47:25;21.70;99.90
18577;DHT22;9418;52.694;13.294;2023-09-19T10:49:53;21.40;99.90
18577;DHT22;9418;52.694;13.294;2023-09-19T10:52:23;21.30;99.90
18577;DHT22;9418;52.694;13.294;2023-09-19T10:54:53;20.90;99.90
18577;DHT22;9418;52.694;13.294;2023-09-19T10:57:23;20.60;99.90
18577;DHT22;9418;52.694;13.294;2023-09-19T11:00:03;20.60;99.90
18577;DHT22;9418;52.694;13.294;2023-09-19T11:03:16;20.50;99.90
18577;DHT22;9418;52.694;13.294;2023-09-19T11:06:00;20.50;99.90
18577;DHT22;9418;52.694;13.294;2023-09-19T11:08:31;20.50;99.90
18577;DHT22;9418;52.694;13.294;2023-09-19T11:11:45;20.30;99.90
18577;DHT22;9418;52.694;13.294;2023-09-19T11:14:30;20.10;99.90
18577;DHT22;9418;52.694;13.294;2023-09-19T11:20:22;20.20;99.90
18577;DHT22;9418;52.694;13.294;2023-09-19T11:23:24;20.00;99.90
18577;DHT22;9418;52.694;13.294;2023-09-19T11:25:52;19.70;99.90
18577;DHT22;9418;52.694;13.294;2023-09-19T11:28:36;19.70;99.90
18577;DHT22;9418;52.694;13.294;2023-09-19T11:34:42;19.90;99.90
18577;DHT22;9418;52.694;13.294;2023-09-19T11:40:38;19.80;99.90
18577;DHT22;9418;52.694;13.294;2023-09-19T11:43:30;20.10;99.90
18577;DHT22;9418;52.694;13.294;2023-09-19T11:46:09;20.10;99.90
18577;DHT22;9418;52.694;13.294;2023-09-19T11:48:38;19.90;99.90
18577;DHT22;9418;52.694;13.294;2023-09-19T11:51:11;20.00;99.90
18577;DHT22;9418;52.694;13.294;2023-09-19T11:53:45;20.10;99.90
18577;DHT22;9418;52.694;13.294;2023-09-19T11:56:15;20.00;99.90
18577;DHT22;9418;52.694;13.294;2023-09-19T11:58:43;20.00;99.90
18577;DHT22;9418;52.694;13.294;2023-09-19T12:01:13;20.10;99.90
18577;DHT22;9418;52.694;13.294;2023-09-19T12:03:42;20.10;99.90
18577;DHT22;9418;52.694;13.294;2023-09-19T12:06:13;20.00;99.90
18577;DHT22;9418;52.694;13.294;2023-09-19T12:08:41;19.80;99.90
18577;DHT22;9418;52.694;13.294;2023-09-19T12:11:12;20.00;99.90
18577;DHT22;9418;52.694;13.294;2023-09-19T12:13:43;20.20;99.90
18577;DHT22;9418;52.694;13.294;2023-09-19T12:16:14;20.20;99.90
18577;DHT22;9418;52.694;13.294;2023-09-19T12:18:42;20.20;99.90
18577;DHT22;9418;52.694;13.294;2023-09-19T12:21:21;20.30;99.90
18577;DHT22;9418;52.694;13.294;2023-09-19T12:23:57;20.50;99.90
18577;DHT22;9418;52.694;13.294;2023-09-19T12:26:26;20.80;99.90
18577;DHT22;9418;52.694;13.294;2023-09-19T12:28:55;20.90;99.90
18577;DHT22;9418;52.694;13.294;2023-09-19T12:31:22;21.10;99.90
18577;DHT22;9418;52.694;13.294;2023-09-19T12:33:53;20.90;99.90
18577;DHT22;9418;52.694;13.294;2023-09-19T12:36:20;20.70;99.90
18577;DHT22;9418;52.694;13.294;2023-09-19T12:38:50;20.80;99.90
18577;DHT22;9418;52.694;13.294;2023-09-19T12:41:19;20.80;99.90
18577;DHT22;9418;52.694;13.294;2023-09-19T12:43:46;20.80;99.90
18577;DHT22;9418;52.694;13.294;2023-09-19T12:46:14;20.90;99.90
18577;DHT22;9418;52.694;13.294;2023-09-19T12:48:45;20.90;99.90
18577;DHT22;9418;52.694;13.294;2023-09-19T12:51:13;20.90;99.90
18577;DHT22;9418;52.694;13.294;2023-09-19T12:53:42;20.90;99.90
18577;DHT22;9418;52.694;13.294;2023-09-19T12:56:12;20.70;99.90
18577;DHT22;9418;52.694;13.294;2023-09-19T12:58:53;20.70;99.90
18577;DHT22;9418;52.694;13.294;2023-09-19T13:01:22;20.50;99.90
18577;DHT22;9418;52.694;13.294;2023-09-19T13:04:14;20.50;99.90
18577;DHT22;9418;52.694;13.294;2023-09-19T13:06:43;20.30;99.90
18577;DHT22;9418;52.694;13.294;2023-09-19T13:09:11;20.30;99.90
18577;DHT22;9418;52.694;13.294;2023-09-19T13:11:40;20.30;99.90
18577;DHT22;9418;52.694;13.294;2023-09-19T13:14:21;20.20;99.90
18577;DHT22;9418;52.694;13.294;2023-09-19T13:17:01;20.30;99.90
18577;DHT22;9418;52.694;13.294;2023-09-19T13:19:37;20.30;99.90
18577;DHT22;9418;52.694;13.294;2023-09-19T13:22:05;20.20;99.90
18577;DHT22;9418;52.694;13.294;2023-09-19T13:24:34;20.20;99.90
18577;DHT22;9418;52.694;13.294;2023-09-19T13:27:05;20.10;99.90
18577;DHT22;9418;52.694;13.294;2023-09-19T13:29:32;20.20;99.90
18577;DHT22;9418;52.694;13.294;2023-09-19T13:32:01;20.20;99.90
18577;DHT22;9418;52.694;13.294;2023-09-19T13:34:28;20.20;99.90
18577;DHT22;9418;52.694;13.294;2023-09-19T13:36:54;20.00;99.90
18577;DHT22;9418;52.694;13.294;2023-09-19T13:39:21;20.00;99.90
18577;DHT22;9418;52.694;13.294;2023-09-19T13:41:50;19.70;99.90
18577;DHT22;9418;52.694;13.294;2023-09-19T13:44:16;19.70;99.90
18577;DHT22;9418;52.694;13.294;2023-09-19T13:46:43;19.80;99.90
18577;DHT22;9418;52.694;13.294;2023-09-19T13:49:12;19.70;99.90
18577;DHT22;9418;52.694;13.294;2023-09-19T13:51:39;19.80;99.90
18577;DHT22;9418;52.694;13.294;2023-09-19T13:54:08;19.80;99.90
18577;DHT22;9418;52.694;13.294;2023-09-19T13:56:37;19.70;99.90
18577;DHT22;9418;52.694;13.294;2023-09-19T13:59:04;19.70;99.90
18577;DHT22;9418;52.694;13.294;2023-09-19T14:01:31;19.70;99.90
18577;DHT22;9418;52.694;13.294;2023-09-19T14:03:57;19.80;99.90
18577;DHT22;9418;52.694;13.294;2023-09-19T14:06:25;19.70;99.90
18577;DHT22;9418;52.694;13.294;2023-09-19T14:08:51;19.60;99.90
18577;DHT22;9418;52.694;13.294;2023-09-19T14:11:18;19.60;99.90
18577;DHT22;9418;52.694;13.294;2023-09-19T14:13:44;19.60;99.90
18577;DHT22;9418;52.694;13.294;2023-09-19T14:16:13;19.70;99.90
18577;DHT22;9418;52.694;13.294;2023-09-19T14:18:40;19.70;99.90
18577;DHT22;9418;52.694;13.294;2023-09-19T14:21:07;19.70;99.90
18577;DHT22;9418;52.694;13.294;2023-09-19T14:23:38;19.70;99.90
18577;DHT22;9418;52.694;13.294;2023-09-19T14:26:05;19.80;99.90
18577;DHT22;9418;52.694;13.294;2023-09-19T14:28:31;19.80;99.90
18577;DHT22;9418;52.694;13.294;2023-09-19T14:31:04;19.80;99.90
18577;DHT22;9418;52.694;13.294;2023-09-19T14:33:31;19.70;99.90
18577;DHT22;9418;52.694;13.294;2023-09-19T14:35:58;19.80;99.90
18577;DHT22;9418;52.694;13.294;2023-09-19T14:38:24;19.90;99.90
18577;DHT22;9418;52.694;13.294;2023-09-19T14:41:00;19.70;99.90
18577;DHT22;9418;52.694;13.294;2023-09-19T14:43:27;19.80;99.90
18577;DHT22;9418;52.694;13.294;2023-09-19T14:45:55;19.80;99.90
18577;DHT22;9418;52.694;13.294;2023-09-19T14:48:22;19.80;99.90
18577;DHT22;9418;52.694;13.294;2023-09-19T14:50:50;19.90;99.90
18577;DHT22;9418;52.694;13.294;2023-09-19T14:53:17;19.90;99.90
18577;DHT22;9418;52.694;13.294;2023-09-19T14:55:43;20.00;99.90
18577;DHT22;9418;52.694;13.294;2023-09-19T14:58:14;19.90;99.90
18577;DHT22;9418;52.694;13.294;2023-09-19T15:00:40;19.80;99.90
18577;DHT22;9418;52.694;13.294;2023-09-19T15:03:11;19.80;99.90
18577;DHT22;9418;52.694;13.294;2023-09-19T15:05:38;19.80;99.90
18577;DHT22;9418;52.694;13.294;2023-09-19T15:08:05;19.80;99.90
18577;DHT22;9418;52.694;13.294;2023-09-19T15:10:32;19.80;99.90
18577;DHT22;9418;52.694;13.294;2023-09-19T15:12:58;19.80;99.90
18577;DHT22;9418;52.694;13.294;2023-09-19T15:15:26;19.80;99.90
18577;DHT22;9418;52.694;13.294;2023-09-19T15:17:53;19.90;99.90
18577;DHT22;9418;52.694;13.294;2023-09-19T15:20:19;19.80;99.90
18577;DHT22;9418;52.694;13.294;2023-09-19T15:22:46;19.90;99.90
18577;DHT22;9418;52.694;13.294;2023-09-19T15:25:13;20.00;99.90
18577;DHT22;9418;52.694;13.294;2023-09-19T15:27:41;19.90;99.90
18577;DHT22;9418;52.694;13.294;2023-09-19T15:30:10;19.90;99.90
18577;DHT22;9418;52.694;13.294;2023-09-19T15:32:38;19.90;99.90
18577;DHT22;9418;52.694;13.294;2023-09-19T15:35:04;19.90;99.90
18577;DHT22;9418;52.694;13.294;2023-09-19T15:37:33;19.90;99.90
18577;DHT22;9418;52.694;13.294;2023-09-19T15:39:59;19.80;99.90
18577;DHT22;9418;52.694;13.294;2023-09-19T15:42:26;19.80;99.90
18577;DHT22;9418;52.694;13.294;2023-09-19T15:44:52;19.70;99.90
18577;DHT22;9418;52.694;13.294;2023-09-19T15:47:20;19.80;99.90
18577;DHT22;9418;52.694;13.294;2023-09-19T15:49:48;19.70;99.90
18577;DHT22;9418;52.694;13.294;2023-09-19T15:52:17;19.70;99.90
18577;DHT22;9418;52.694;13.294;2023-09-19T15:54:43;19.70;99.90
18577;DHT22;9418;52.694;13.294;2023-09-19T15:57:10;19.70;99.90